Time;durP1;ratioP1;P1;durP2;ratioP2;P2;SDS_P1;SDS_P2;PMS_P1;PMS_P2;Temp;Humidity;BMP_temperature;BMP_pressure;BME280_temperature;BME280_humidity;BME280_pressure;Samples;Min_cycle;Max_cycle;Signal;HPM_P1;HPM_P2
2022/09/23 00:00:14;;;;;;;3.72;2.63;;;;;;;9.13;97.39;96071.50;4967287;28;20452;-64
2022/09/23 00:02:41;;;;;;;4.97;3.05;;;;;;;9.11;97.09;96064.72;4965927;28;20102;-63
2022/09/23 00:05:09;;;;;;;3.75;3.42;;;;;;;9.08;96.95;96063.16;4972500;28;20025;-67
2022/09/23 00:07:34;;;;;;;3.40;3.20;;;;;;;9.05;98.01;96065.19;4966148;28;20455;-58
2022/09/23 00:10:00;;;;;;;3.25;2.95;;;;;;;8.97;98.08;96064.03;4965387;28;20085;-59
2022/09/23 00:12:25;;;;;;;3.30;3.10;;;;;;;8.94;97.75;96061.66;4967818;28;20062;-59
2022/09/23 00:14:50;;;;;;;5.75;4.05;;;;;;;8.88;98.11;96055.09;4967034;28;20018;-59
2022/09/23 00:17:16;;;;;;;4.18;3.38;;;;;;;8.84;98.79;96056.31;4968808;28;20571;-59
2022/09/23 00:19:41;;;;;;;3.50;2.97;;;;;;;8.78;99.13;96054.16;4960295;28;20053;-58
2022/09/23 00:22:07;;;;;;;3.70;3.25;;;;;;;8.76;98.45;96058.72;4969974;28;20078;-61
2022/09/23 00:24:33;;;;;;;3.00;2.80;;;;;;;8.76;98.38;96058.72;4963986;28;20084;-57
2022/09/23 00:26:59;;;;;;;3.38;3.08;;;;;;;8.76;98.54;96058.72;4965366;28;20034;-68
2022/09/23 00:29:24;;;;;;;3.72;3.40;;;;;;;8.74;98.00;96065.88;4951553;28;20034;-69
2022/09/23 00:31:50;;;;;;;5.00;3.08;;;;;;;8.71;97.71;96056.44;4957245;28;20440;-68
2022/09/23 00:34:15;;;;;;;3.47;3.17;;;;;;;8.71;97.83;96052.97;4965679;28;20026;-68
2022/09/23 00:36:42;;;;;;;4.57;3.20;;;;;;;8.68;97.74;96050.59;4967182;28;20027;-68
2022/09/23 00:39:08;;;;;;;3.45;3.08;;;;;;;8.66;98.52;96055.13;4968863;28;20546;-68
2022/09/23 00:41:34;;;;;;;5.75;3.17;;;;;;;8.63;98.59;96055.38;4970920;28;20098;-63
2022/09/23 00:44:22;;;;;;;3.05;2.85;;;;;;;8.62;98.28;96056.34;4966688;28;20528;-56
2022/09/23 00:46:48;;;;;;;3.53;3.13;;;;;;;8.63;98.47;96056.22;4968214;28;20054;-67
2022/09/23 00:49:26;;;;;;;3.28;3.08;;;;;;;8.59;98.37;96053.00;4964331;28;20118;-67
2022/09/23 00:52:00;;;;;;;5.82;3.20;;;;;;;8.59;98.02;96060.88;4968056;28;20019;-67
2022/09/23 00:54:26;;;;;;;3.90;3.30;;;;;;;8.57;98.11;96054.91;4958562;28;20558;-66
2022/09/23 00:56:54;;;;;;;4.97;3.60;;;;;;;8.56;97.91;96061.13;4965976;28;20103;-67
2022/09/23 00:59:20;;;;;;;4.72;3.40;;;;;;;8.56;97.89;96062.91;4964235;28;20033;-67
2022/09/23 01:01:48;;;;;;;3.13;2.80;;;;;;;8.52;97.72;96058.84;4969120;28;20061;-67
2022/09/23 01:04:14;;;;;;;3.33;3.03;;;;;;;8.43;98.70;96061.22;4967387;28;20038;-67
2022/09/23 01:06:40;;;;;;;3.40;3.10;;;;;;;8.37;99.20;96058.22;4967375;28;20027;-68
2022/09/23 01:09:06;;;;;;;2.80;2.60;;;;;;;8.32;99.35;96063.81;4968019;28;20118;-67
2022/09/23 01:11:52;;;;;;;13.57;3.03;;;;;;;8.30;98.93;96050.84;4969206;28;20023;-67
2022/09/23 01:15:06;;;;;;;6.65;3.30;;;;;;;8.34;98.36;96050.59;4963863;28;20019;-67
2022/09/23 01:17:53;;;;;;;2.80;2.63;;;;;;;8.34;98.17;96050.59;4964694;28;20030;-67
2022/09/23 01:20:54;;;;;;;5.03;3.10;;;;;;;8.29;99.22;96053.56;4964374;28;20026;-63
2022/09/23 01:24:07;;;;;;;5.63;3.25;;;;;;;8.15;100.00;96052.84;4960127;28;20035;-63
2022/09/23 01:26:55;;;;;;;3.65;3.17;;;;;;;8.06;100.00;96047.47;4965233;28;20117;-67
2022/09/23 01:29:52;;;;;;;3.78;3.17;;;;;;;8.07;100.00;96049.13;4960960;28;20058;-67
2022/09/23 01:32:31;;;;;;;;;;;;;;;8.10;100.00;96044.50;4943166;28;20031;-67
2022/09/23 01:35:06;;;;;;;4.95;3.03;;;;;;;8.16;99.03;96038.75;4973555;28;20365;-67
2022/09/23 01:37:53;;;;;;;4.00;2.85;;;;;;;8.16;98.94;96043.19;4968316;28;20059;-67
2022/09/23 01:40:19;;;;;;;3.40;3.10;;;;;;;8.15;98.59;96038.91;4969340;28;20066;-63
2022/09/23 01:42:50;;;;;;;4.45;3.50;;;;;;;8.17;98.59;96044.84;4965222;28;20061;-68
2022/09/23 01:45:34;;;;;;;4.70;3.70;;;;;;;8.19;98.29;96042.94;4967820;28;20026;-57
2022/09/23 01:48:17;;;;;;;5.50;2.90;;;;;;;8.19;98.28;96042.13;4969433;28;20026;-59
2022/09/23 01:50:57;;;;;;;8.23;3.40;;;;;;;8.13;100.00;96043.44;4970417;28;20105;-59
2022/09/23 01:53:38;;;;;;;3.80;3.50;;;;;;;8.04;100.00;96044.97;4970551;28;20081;-59
2022/09/23 01:56:30;;;;;;;3.70;3.28;;;;;;;8.01;100.00;96032.91;4970199;28;20033;-59
2022/09/23 01:59:16;;;;;;;6.32;3.30;;;;;;;8.02;100.00;96044.25;4966396;28;20027;-62
2022/09/23 02:01:49;;;;;;;3.72;3.38;;;;;;;8.01;100.00;96042.59;4969104;28;20035;-60
2022/09/23 02:04:24;;;;;;;3.40;3.10;;;;;;;8.02;100.00;96036.38;4969843;28;20042;-61
2022/09/23 02:07:05;;;;;;;4.93;4.43;;;;;;;8.03;100.00;96043.31;4969607;28;20030;-61
2022/09/23 02:09:41;;;;;;;8.98;4.40;;;;;;;8.01;100.00;96040.78;4967794;28;20561;-61
2022/09/23 02:12:12;;;;;;;4.68;3.80;;;;;;;8.03;99.95;96044.13;4967604;28;20028;-61
2022/09/23 02:14:56;;;;;;;4.45;3.50;;;;;;;8.03;100.00;96041.50;4967952;28;20023;-61
2022/09/23 02:17:52;;;;;;;4.78;3.60;;;;;;;7.99;100.00;96039.25;4971542;28;20023;-61
2022/09/23 02:20:20;;;;;;;;;;;;;;;7.92;100.00;96044.13;4963893;28;20062;-61
2022/09/23 02:23:00;;;;;;;4.10;3.30;;;;;;;7.85;100.00;96037.69;4971791;28;19953;-63
2022/09/23 02:25:36;;;;;;;5.40;4.90;;;;;;;7.87;100.00;96046.25;4970382;28;20074;-63
2022/09/23 02:28:14;;;;;;;5.45;4.72;;;;;;;7.95;100.00;96041.25;4966274;28;20519;-63
2022/09/23 02:30:50;;;;;;;4.35;3.92;;;;;;;7.93;100.00;96042.31;4972120;28;20027;-63
2022/09/23 02:33:19;;;;;;;;;;;;;;;7.95;100.00;96049.13;4967913;28;20058;-63
2022/09/23 02:35:53;;;;;;;3.80;3.60;;;;;;;7.94;100.00;96039.59;4966369;28;19949;-63
2022/09/23 02:38:28;;;;;;;3.90;3.47;;;;;;;7.95;100.00;96043.03;4971987;28;20400;-59
2022/09/23 02:41:14;;;;;;;5.55;3.70;;;;;;;7.96;100.00;96045.56;4964695;28;20030;-61
2022/09/23 02:43:52;;;;;;;3.60;3.30;;;;;;;7.96;99.87;96050.78;4965462;28;20023;-61
2022/09/23 02:46:19;;;;;;;3.22;3.03;;;;;;;7.91;100.00;96050.31;4968953;28;20077;-61
2022/09/23 02:48:51;;;;;;;4.38;3.00;;;;;;;7.89;100.00;96053.03;4962492;28;20398;-61
2022/09/23 02:51:18;;;;;;;4.90;4.30;;;;;;;7.88;99.84;96051.38;4971925;28;20476;-61
2022/09/23 02:53:44;;;;;;;3.83;3.58;;;;;;;7.87;100.00;96047.09;4973115;28;20109;-61
2022/09/23 02:56:19;;;;;;;3.90;3.60;;;;;;;7.87;99.54;96048.88;4972822;28;20073;-68
2022/09/23 02:58:49;;;;;;;3.67;3.40;;;;;;;7.81;100.00;96041.47;4973289;28;20019;-63
2022/09/23 03:01:51;;;;;;;3.30;3.00;;;;;;;7.70;100.00;96045.75;4972816;28;20045;-63
2022/09/23 03:04:16;;;;;;;3.30;3.10;;;;;;;7.67;100.00;96053.00;4972762;28;20057;-63
2022/09/23 03:07:09;;;;;;;3.33;3.00;;;;;;;7.64;100.00;96047.97;4973130;28;20575;-63
2022/09/23 03:09:46;;;;;;;5.93;3.38;;;;;;;7.68;100.00;96055.50;4971074;28;20381;-63
2022/09/23 03:12:34;;;;;;;3.90;3.53;;;;;;;7.69;100.00;96037.97;4968523;28;20026;-63
2022/09/23 03:15:30;;;;;;;3.45;3.15;;;;;;;7.67;99.85;96045.13;4968165;28;20023;-63
2022/09/23 03:18:17;;;;;;;3.92;3.53;;;;;;;7.57;99.89;96037.13;4962954;28;20019;-56
2022/09/23 03:20:54;;;;;;;4.93;2.80;;;;;;;7.59;100.00;96038.69;4972547;28;20082;-60
2022/09/23 03:23:25;;;;;;;3.60;3.30;;;;;;;7.59;100.00;96040.47;4972908;28;20026;-60
2022/09/23 03:25:54;;;;;;;4.50;3.03;;;;;;;7.55;100.00;96039.88;4972328;28;20102;-60
2022/09/23 03:28:21;;;;;;;4.72;3.40;;;;;;;7.55;99.79;96036.41;4972766;28;20093;-60
2022/09/23 03:30:49;;;;;;;3.25;2.97;;;;;;;7.59;99.11;96037.84;4971928;28;20038;-60
2022/09/23 03:33:17;;;;;;;4.45;3.40;;;;;;;7.58;99.24;96036.16;4972363;28;20034;-60
2022/09/23 03:38:42;;;;;;;4.18;3.08;;;;;;;7.58;99.30;96036.16;4971204;28;20415;-59
2022/09/23 03:41:15;;;;;;;3.40;3.10;;;;;;;7.58;99.43;96034.41;4972356;28;20030;-59
2022/09/23 03:43:43;;;;;;;4.57;3.22;;;;;;;7.60;99.25;96023.78;4972012;28;20015;-58
2022/09/23 03:46:08;;;;;;;4.30;2.80;;;;;;;7.59;98.88;96027.34;4971915;28;20576;-59
2022/09/23 03:48:34;;;;;;;5.75;3.05;;;;;;;7.60;98.60;96021.16;4972455;28;20131;-59
2022/09/23 03:51:18;;;;;;;3.22;3.00;;;;;;;7.60;98.34;96031.66;4971932;28;20097;-58
2022/09/23 03:53:44;;;;;;;3.13;2.92;;;;;;;7.59;98.21;96022.13;4972457;28;20060;-58
2022/09/23 03:56:10;;;;;;;4.05;3.20;;;;;;;7.58;98.18;96038.78;4971743;28;20683;-63
2022/09/23 03:58:36;;;;;;;3.00;2.75;;;;;;;7.52;98.49;96036.63;4971981;28;20038;-63
2022/09/23 04:01:02;;;;;;;5.35;2.90;;;;;;;7.53;98.81;96043.53;4970746;28;20065;-63
2022/09/23 04:03:28;;;;;;;3.20;2.90;;;;;;;7.48;98.74;96043.06;4971293;28;20027;-63
2022/09/23 04:05:53;;;;;;;2.90;2.80;;;;;;;7.45;99.53;96044.13;4971727;28;20018;-63
2022/09/23 04:08:19;;;;;;;3.88;3.33;;;;;;;7.42;100.00;96042.56;4971855;28;20047;-64
2022/09/23 04:10:45;;;;;;;3.47;3.17;;;;;;;7.40;100.00;96049.69;4972334;28;20062;-63
2022/09/23 04:13:11;;;;;;;3.65;3.35;;;;;;;7.40;99.90;96041.81;4971733;28;20026;-63
2022/09/23 04:15:36;;;;;;;9.38;3.35;;;;;;;7.38;99.90;96043.72;4954363;28;20118;-64
2022/09/23 04:18:02;;;;;;;6.82;3.50;;;;;;;7.38;99.54;96051.59;4976303;28;20026;-61
2022/09/23 04:20:29;;;;;;;5.35;3.00;;;;;;;7.32;98.97;96044.19;4970397;28;20066;-60
2022/09/23 04:22:55;;;;;;;3.08;2.90;;;;;;;7.26;98.52;96049.88;4971560;28;20033;-60
2022/09/23 04:25:20;;;;;;;4.05;3.00;;;;;;;7.22;99.49;96058.91;4970739;28;20034;-60
2022/09/23 04:27:45;;;;;;;2.60;2.50;;;;;;;7.22;98.58;96059.75;4971018;28;20492;-60
2022/09/23 04:30:11;;;;;;;4.30;2.78;;;;;;;7.25;97.95;96050.84;4969892;28;20026;-60
2022/09/23 04:32:37;;;;;;;3.20;2.90;;;;;;;7.30;97.20;96056.56;4971550;28;20031;-62
2022/09/23 04:35:04;;;;;;;3.60;3.05;;;;;;;7.33;96.97;96056.34;4971667;28;20082;-61
2022/09/23 04:37:29;;;;;;;3.50;3.20;;;;;;;7.34;96.72;96065.84;4971505;28;20069;-63
2022/09/23 04:39:55;;;;;;;3.45;2.80;;;;;;;7.30;96.90;96067.88;4971164;28;20034;-64
2022/09/23 04:42:20;;;;;;;2.78;2.63;;;;;;;7.27;97.63;96060.22;4971205;28;20069;-64
2022/09/23 04:44:46;;;;;;;3.15;2.72;;;;;;;7.25;97.88;96063.94;4971047;28;20030;-63
2022/09/23 04:47:11;;;;;;;3.25;2.97;;;;;;;7.24;97.88;96054.41;4971231;28;20461;-63
2022/09/23 04:49:37;;;;;;;2.85;2.65;;;;;;;7.24;97.19;96063.06;4970726;28;20042;-64
2022/09/23 04:52:04;;;;;;;3.20;2.90;;;;;;;7.24;97.01;96070.94;4971528;28;20063;-63
2022/09/23 04:54:30;;;;;;;3.42;3.22;;;;;;;7.23;97.08;96068.44;4971026;28;20038;-67
2022/09/23 04:56:55;;;;;;;3.13;2.90;;;;;;;7.22;97.14;96062.34;4971231;28;20031;-68
2022/09/23 04:59:21;;;;;;;2.90;2.70;;;;;;;7.22;97.12;96061.53;4970486;28;20042;-68
2022/09/23 05:01:46;;;;;;;2.50;2.40;;;;;;;7.22;96.44;96064.16;4971073;28;20488;-68
2022/09/23 05:04:14;;;;;;;2.92;2.70;;;;;;;7.25;96.10;96063.94;4970619;28;20072;-68
2022/09/23 05:06:42;;;;;;;3.05;2.80;;;;;;;7.24;96.07;96068.31;4953583;28;20492;-68
2022/09/23 05:09:12;;;;;;;4.15;2.50;;;;;;;7.17;97.40;96064.47;4969704;28;20033;-68
2022/09/23 05:11:38;;;;;;;3.20;3.00;;;;;;;7.14;97.09;96062.91;4970620;28;20161;-60
2022/09/23 05:14:03;;;;;;;4.97;3.22;;;;;;;7.14;97.19;96070.75;4970895;28;20595;-63
2022/09/23 05:16:28;;;;;;;5.15;2.70;;;;;;;7.08;97.66;96062.53;4970836;28;20019;-57
2022/09/23 05:18:54;;;;;;;3.10;2.80;;;;;;;6.99;98.09;96066.66;4970502;28;20428;-57
2022/09/23 05:21:22;;;;;;;2.97;2.78;;;;;;;7.02;97.28;96067.25;4970788;28;20485;-58
2022/09/23 05:23:53;;;;;;;5.68;3.30;;;;;;;7.02;97.85;96071.66;4970840;28;20491;-56
2022/09/23 05:26:20;;;;;;;3.35;3.05;;;;;;;7.00;97.69;96074.38;4970240;28;20027;-58
2022/09/23 05:28:46;;;;;;;4.55;3.28;;;;;;;7.00;97.23;96070.94;4970362;28;20108;-57
2022/09/23 05:31:14;;;;;;;3.38;3.10;;;;;;;7.02;97.25;96069.88;4961330;28;20038;-64
2022/09/23 05:33:51;;;;;;;2.83;2.63;;;;;;;7.05;97.63;96070.59;4970298;28;20034;-68
2022/09/23 05:36:17;;;;;;;3.25;2.85;;;;;;;7.03;97.63;96068.94;4969339;28;20688;-61
2022/09/23 05:38:43;;;;;;;3.45;3.00;;;;;;;7.00;97.52;96078.81;4969155;28;20563;-60
2022/09/23 05:41:11;;;;;;;4.72;2.70;;;;;;;6.98;98.22;96078.91;4969622;28;20106;-61
2022/09/23 05:43:36;;;;;;;5.45;3.13;;;;;;;7.01;97.12;96073.44;4951609;28;20023;-60
2022/09/23 05:46:17;;;;;;;2.80;2.60;;;;;;;7.09;96.53;96085.97;4968070;28;20117;-61
2022/09/23 05:48:44;;;;;;;3.67;3.00;;;;;;;7.09;96.75;96085.97;4969420;28;20114;-61
2022/09/23 05:51:14;;;;;;;3.70;3.03;;;;;;;7.09;96.55;96088.59;4969293;28;20038;-66
2022/09/23 05:53:43;;;;;;;3.00;2.80;;;;;;;7.12;96.88;96085.75;4970916;28;20054;-63
2022/09/23 05:56:09;;;;;;;3.75;3.00;;;;;;;7.13;96.86;96092.66;4970502;28;20027;-64
2022/09/23 05:58:34;;;;;;;5.65;3.40;;;;;;;7.12;96.41;96093.59;4970589;28;20420;-64
2022/09/23 06:00:59;;;;;;;3.08;2.88;;;;;;;7.12;97.23;96084.94;4970201;28;20025;-63
2022/09/23 06:03:25;;;;;;;5.38;3.17;;;;;;;7.13;97.59;96084.81;4969863;28;20638;-62
2022/09/23 06:05:56;;;;;;;3.40;3.17;;;;;;;7.15;98.39;96085.53;4969778;28;20031;-62
2022/09/23 06:08:22;;;;;;;3.30;3.00;;;;;;;7.25;96.69;96090.13;4969491;28;20034;-63
2022/09/23 06:10:48;;;;;;;4.10;3.25;;;;;;;7.34;96.53;96091.22;4969970;28;20026;-65
2022/09/23 06:13:17;;;;;;;3.47;3.28;;;;;;;7.34;96.67;96086.81;4964912;28;20085;-61
2022/09/23 06:15:43;;;;;;;5.50;3.55;;;;;;;7.37;96.24;96080.53;4968160;28;20023;-59
2022/09/23 06:18:09;;;;;;;4.18;3.85;;;;;;;7.43;96.04;96080.06;4970633;28;20030;-59
2022/09/23 06:20:34;;;;;;;4.45;3.25;;;;;;;7.50;95.86;96085.69;4972867;28;20117;-59
2022/09/23 06:23:07;;;;;;;5.05;4.20;;;;;;;7.51;96.42;96079.50;4973414;28;20492;-59
2022/09/23 06:25:34;;;;;;;6.07;3.53;;;;;;;7.57;96.34;96084.28;4973680;28;20023;-59
2022/09/23 06:28:01;;;;;;;3.83;3.50;;;;;;;7.62;96.53;96087.41;4973732;28;20031;-59
2022/09/23 06:30:26;;;;;;;4.00;3.60;;;;;;;7.69;95.64;96070.28;4955100;28;20376;-62
2022/09/23 06:32:56;;;;;;;3.72;3.42;;;;;;;7.77;95.44;96081.97;4967994;28;20026;-56
2022/09/23 06:35:24;;;;;;;7.85;3.80;;;;;;;7.81;96.94;96080.78;4968356;28;20026;-57
2022/09/23 06:37:49;;;;;;;5.90;4.25;;;;;;;7.80;96.56;96079.13;4969248;28;20058;-56
2022/09/23 06:40:15;;;;;;;5.78;4.18;;;;;;;7.85;96.42;96082.25;4971280;28;20085;-57
2022/09/23 06:42:41;;;;;;;4.07;3.65;;;;;;;7.92;96.11;96075.59;4969830;28;20493;-57
2022/09/23 06:45:11;;;;;;;6.80;3.30;;;;;;;7.97;96.61;96076.06;4971787;28;20551;-56
2022/09/23 06:47:37;;;;;;;6.10;3.53;;;;;;;8.01;97.06;96072.25;4971739;28;20031;-57
2022/09/23 06:50:03;;;;;;;3.63;3.33;;;;;;;8.11;96.73;96076.81;4971710;28;20125;-59
2022/09/23 06:52:29;;;;;;;4.57;3.20;;;;;;;8.20;96.78;96080.53;4972114;28;20081;-67
2022/09/23 06:54:55;;;;;;;4.53;3.00;;;;;;;8.27;96.89;96073.84;4967684;28;20026;-67
2022/09/23 06:57:21;;;;;;;3.78;3.38;;;;;;;8.33;96.41;96075.97;4969129;28;20543;-66
2022/09/23 06:59:46;;;;;;;3.55;3.15;;;;;;;8.39;96.23;96074.69;4971322;28;20419;-66
2022/09/23 07:02:12;;;;;;;3.58;3.28;;;;;;;8.44;97.90;96072.53;4969644;28;20089;-65
2022/09/23 07:04:38;;;;;;;5.75;3.65;;;;;;;8.51;97.24;96067.69;4966964;28;20063;-66
2022/09/23 07:07:03;;;;;;;4.45;3.35;;;;;;;8.63;96.47;96073.75;4968290;28;20037;-65
2022/09/23 07:09:28;;;;;;;3.28;3.00;;;;;;;8.77;95.84;96072.66;4972187;28;20033;-59
2022/09/23 07:11:54;;;;;;;5.05;3.75;;;;;;;8.92;96.27;96075.84;4972409;28;20044;-64
2022/09/23 07:14:19;;;;;;;4.50;4.10;;;;;;;9.06;95.98;96077.38;4971792;28;20138;-65
2022/09/23 07:16:48;;;;;;;4.13;3.47;;;;;;;9.22;94.54;96079.63;4968817;28;20416;-64
2022/09/23 07:19:13;;;;;;;7.28;3.90;;;;;;;9.45;92.40;96083.00;4970093;28;20031;-64
2022/09/23 07:21:38;;;;;;;4.28;3.28;;;;;;;9.70;90.83;96086.22;4966676;28;20093;-64
2022/09/23 07:24:04;;;;;;;6.53;3.80;;;;;;;9.93;89.79;96072.97;4971001;28;20062;-64
2022/09/23 07:26:32;;;;;;;4.40;3.55;;;;;;;10.22;89.72;96086.31;4971693;28;20027;-64
2022/09/23 07:29:03;;;;;;;4.40;3.90;;;;;;;10.30;88.44;96093.56;4972164;28;20034;-60
2022/09/23 07:31:30;;;;;;;4.57;3.40;;;;;;;10.37;83.60;96089.41;4971163;28;20035;-64
2022/09/23 07:33:57;;;;;;;4.07;3.42;;;;;;;10.52;83.86;96094.38;4971740;28;20062;-63
2022/09/23 07:36:23;;;;;;;4.50;3.63;;;;;;;10.66;84.11;96093.19;4962092;28;20033;-64
2022/09/23 07:38:49;;;;;;;5.78;4.88;;;;;;;10.85;82.78;96097.72;4970513;28;20069;-64
2022/09/23 07:41:17;;;;;;;6.45;4.40;;;;;;;10.98;82.52;96108.81;4971153;28;20081;-64
2022/09/23 07:43:44;;;;;;;4.80;4.40;;;;;;;11.03;80.65;96100.53;4971534;28;20055;-65
2022/09/23 07:46:15;;;;;;;6.28;4.05;;;;;;;11.15;80.23;96109.16;4970780;28;20037;-65
2022/09/23 07:48:41;;;;;;;5.82;3.72;;;;;;;11.26;80.11;96113.47;4971737;28;20138;-59
2022/09/23 07:51:12;;;;;;;4.32;3.88;;;;;;;11.37;80.22;96118.63;4971656;28;20035;-68
2022/09/23 07:53:38;;;;;;;4.88;4.38;;;;;;;11.49;80.06;96121.97;4971750;28;20142;-69
2022/09/23 07:56:05;;;;;;;9.95;4.22;;;;;;;11.57;78.97;96119.50;4970490;28;20083;-68
2022/09/23 07:58:32;;;;;;;5.53;3.60;;;;;;;11.71;77.53;96106.84;4967776;28;20034;-69
2022/09/23 08:01:05;;;;;;;6.35;3.70;;;;;;;11.84;76.17;96117.97;4970045;28;20035;-68
2022/09/23 08:03:30;;;;;;;4.93;3.75;;;;;;;11.95;76.32;96111.72;4971189;28;20058;-67
2022/09/23 08:06:08;;;;;;;3.42;3.13;;;;;;;12.20;74.54;96114.75;4960723;28;20062;-60
2022/09/23 08:08:35;;;;;;;4.32;3.25;;;;;;;12.34;73.87;96112.66;4971044;28;20080;-64
2022/09/23 08:11:02;;;;;;;6.35;3.60;;;;;;;12.32;72.76;96115.44;4971331;28;20432;-60
2022/09/23 08:13:28;;;;;;;5.72;3.22;;;;;;;12.36;71.32;96108.88;4969535;28;20082;-60
2022/09/23 08:15:53;;;;;;;4.85;3.35;;;;;;;12.39;72.65;96107.78;4968975;28;20026;-60
2022/09/23 08:18:18;;;;;;;5.78;4.10;;;;;;;12.56;72.82;96109.69;4971314;28;20104;-60
2022/09/23 08:20:44;;;;;;;13.85;4.78;;;;;;;12.69;73.54;96105.88;4971060;28;20070;-61
2022/09/23 08:23:13;;;;;;;12.82;3.83;;;;;;;12.78;75.04;96110.28;4971198;28;20062;-60
2022/09/23 08:25:39;;;;;;;2.92;2.72;;;;;;;12.83;71.41;96110.69;4970351;28;20110;-58
2022/09/23 08:28:05;;;;;;;4.35;2.50;;;;;;;12.88;71.98;96113.72;4971227;28;20035;-61
2022/09/23 08:30:30;;;;;;;2.50;2.30;;;;;;;13.02;70.09;96109.75;4970728;28;20089;-59
2022/09/23 08:32:56;;;;;;;3.13;2.42;;;;;;;13.01;71.68;96101.97;4970926;28;20030;-60
2022/09/23 08:35:21;;;;;;;3.33;2.38;;;;;;;13.07;71.54;96108.50;4970427;28;20041;-59
2022/09/23 08:37:47;;;;;;;2.75;2.53;;;;;;;13.14;72.80;96096.34;4970815;28;20030;-59
2022/09/23 08:40:12;;;;;;;2.60;2.40;;;;;;;13.23;72.22;96098.09;4970411;28;20037;-59
2022/09/23 08:42:41;;;;;;;2.70;2.50;;;;;;;13.37;71.31;96098.56;4969983;28;20037;-59
2022/09/23 08:45:26;;;;;;;2.80;2.60;;;;;;;13.46;68.68;96095.06;4970246;28;20034;-65
2022/09/23 08:48:00;;;;;;;2.78;2.58;;;;;;;13.55;67.69;96093.31;4971151;28;20028;-57
2022/09/23 08:50:42;;;;;;;3.25;2.90;;;;;;;13.58;67.00;96091.22;4970844;28;20110;-64
2022/09/23 08:53:31;;;;;;;2.65;2.45;;;;;;;13.64;70.16;96086.28;4970439;28;20043;-64
2022/09/23 08:56:05;;;;;;;3.00;2.72;;;;;;;13.73;70.59;96082.75;4969547;28;20030;-64
2022/09/23 08:59:10;;;;;;;3.20;2.90;;;;;;;13.97;69.62;96076.00;4970682;28;20105;-64
2022/09/23 09:01:39;;;;;;;5.55;2.92;;;;;;;14.12;69.63;96078.91;4959269;28;20057;-65
2022/09/23 09:04:13;;;;;;;2.78;2.58;;;;;;;14.17;70.22;96072.19;4969965;28;20104;-56
2022/09/23 09:07:06;;;;;;;4.40;2.80;;;;;;;14.22;69.44;96070.88;4970167;28;20030;-67
2022/09/23 09:09:38;;;;;;;2.92;2.53;;;;;;;14.35;68.04;96065.16;4969765;28;20035;-60
2022/09/23 09:12:15;;;;;;;5.82;2.65;;;;;;;14.53;68.42;96063.28;4970241;28;20031;-60
2022/09/23 09:14:56;;;;;;;3.97;2.78;;;;;;;14.79;68.63;96062.44;4970214;28;20031;-61
2022/09/23 09:17:44;;;;;;;2.75;2.50;;;;;;;14.85;66.89;96059.13;4970229;28;20019;-60
2022/09/23 09:20:35;;;;;;;2.80;2.60;;;;;;;14.94;66.03;96056.53;4970452;28;20058;-59
2022/09/23 09:23:10;;;;;;;3.25;2.95;;;;;;;14.93;64.52;96054.88;4969990;28;20018;-59
2022/09/23 09:25:54;;;;;;;3.00;2.40;;;;;;;15.06;65.26;96052.59;4969463;28;20109;-59
2022/09/23 09:28:34;;;;;;;2.92;2.38;;;;;;;15.36;63.51;96050.31;4970593;28;20026;-61
2022/09/23 09:31:01;;;;;;;2.72;2.40;;;;;;;15.39;64.09;96044.72;4969930;28;20019;-61
2022/09/23 09:33:35;;;;;;;5.57;2.50;;;;;;;15.48;63.56;96045.56;4952806;28;20475;-61
2022/09/23 09:36:11;;;;;;;3.60;2.17;;;;;;;15.68;57.76;96043.41;4969359;28;20022;-62
2022/09/23 09:38:36;;;;;;;3.72;2.08;;;;;;;15.68;58.20;96043.41;4970012;28;20066;-62
2022/09/23 09:41:12;;;;;;;2.30;1.80;;;;;;;15.85;51.59;96046.88;4970143;28;20030;-62
2022/09/23 09:43:40;;;;;;;1.80;1.70;;;;;;;15.95;53.15;96038.78;4966322;28;20035;-66
2022/09/23 09:46:24;;;;;;;2.03;1.85;;;;;;;15.96;51.27;96039.63;4968839;28;20069;-65
2022/09/23 09:49:15;;;;;;;2.22;2.00;;;;;;;15.93;52.95;96039.97;4959692;28;20034;-63
2022/09/23 09:51:41;;;;;;;1.95;1.85;;;;;;;16.08;52.63;96035.63;4969756;28;20475;-64
2022/09/23 09:54:24;;;;;;;2.17;1.98;;;;;;;16.17;52.72;96031.97;4970464;28;20031;-64
2022/09/23 09:56:51;;;;;;;1.90;1.73;;;;;;;16.30;53.30;96030.59;4974155;28;20018;-64
2022/09/23 09:59:40;;;;;;;2.15;2.00;;;;;;;16.29;52.39;96031.59;4973645;28;20030;-64
2022/09/23 10:02:12;;;;;;;1.85;1.75;;;;;;;16.47;52.36;96024.25;4973832;28;20038;-58
2022/09/23 10:04:37;;;;;;;2.13;1.90;;;;;;;16.56;52.47;96029.53;4972838;28;20031;-58
2022/09/23 10:07:13;;;;;;;2.92;2.30;;;;;;;16.51;52.04;96024.75;4972446;28;20033;-67
2022/09/23 10:09:47;;;;;;;1.52;1.52;;;;;;;16.46;52.45;96027.06;4971205;28;20166;-67
2022/09/23 10:12:14;;;;;;;2.05;1.88;;;;;;;16.57;53.85;96024.06;4972582;28;20117;-68
2022/09/23 10:14:41;;;;;;;2.88;2.25;;;;;;;16.62;55.78;96023.53;4972949;28;20547;-68
2022/09/23 10:17:14;;;;;;;2.65;2.25;;;;;;;16.71;55.20;96021.69;4972884;28;20515;-67
2022/09/23 10:19:46;;;;;;;3.88;2.00;;;;;;;16.63;55.24;96016.38;4973078;28;20034;-66
2022/09/23 10:22:22;;;;;;;5.97;3.00;;;;;;;16.52;55.42;96013.13;4973086;28;20042;-61
2022/09/23 10:24:53;;;;;;;2.67;2.47;;;;;;;16.60;56.74;96004.28;4961459;28;20054;-61
2022/09/23 10:27:30;;;;;;;10.68;2.60;;;;;;;16.63;56.46;96003.94;4973094;28;20560;-61
2022/09/23 10:29:58;;;;;;;3.55;2.35;;;;;;;16.66;57.81;96000.94;4973126;28;20050;-61
2022/09/23 10:32:43;;;;;;;3.53;2.15;;;;;;;16.76;56.02;95992.75;4972676;28;20053;-61
2022/09/23 10:35:08;;;;;;;3.97;3.40;;;;;;;16.83;56.82;95996.38;4972340;28;20081;-62
2022/09/23 10:37:57;;;;;;;4.38;2.33;;;;;;;16.95;56.45;95988.00;4972838;28;20022;-61
2022/09/23 10:49:22;;;;;;;7.18;3.80;;;;;;;17.52;57.08;95970.84;4965740;28;20062;-67
2022/09/23 10:51:47;;;;;;;3.78;2.83;;;;;;;17.79;56.79;95962.47;4971154;28;20066;-67
2022/09/23 10:54:18;;;;;;;3.17;2.40;;;;;;;17.93;55.09;95960.84;4970875;28;20069;-67
2022/09/23 10:56:53;;;;;;;2.63;2.33;;;;;;;17.89;55.37;95958.53;4970592;28;20078;-66
2022/09/23 10:59:55;;;;;;;2.70;2.50;;;;;;;18.02;55.49;95959.78;4970009;28;20027;-67
2022/09/23 11:02:33;;;;;;;2.13;1.90;;;;;;;18.37;54.27;95954.75;4970400;28;20029;-68
2022/09/23 11:05:05;;;;;;;2.63;2.42;;;;;;;18.34;53.82;95949.75;4969133;28;20023;-67
2022/09/23 11:08:02;;;;;;;3.45;2.60;;;;;;;18.64;52.85;95941.75;4967640;28;20054;-67
2022/09/23 11:10:33;;;;;;;2.67;2.47;;;;;;;19.05;52.80;95937.72;4971209;28;20019;-67
2022/09/23 11:13:23;;;;;;;2.35;2.15;;;;;;;19.35;51.90;95932.28;4971350;28;20018;-67
2022/09/23 11:16:23;;;;;;;2.08;1.88;;;;;;;19.64;50.79;95929.63;4970443;28;20027;-67
2022/09/23 11:19:01;;;;;;;4.93;2.00;;;;;;;19.80;50.33;95920.53;4970692;28;20025;-62
2022/09/23 11:21:47;;;;;;;2.30;2.15;;;;;;;19.84;51.01;95927.13;4970888;28;20480;-60
2022/09/23 11:24:22;;;;;;;2.33;2.13;;;;;;;20.41;48.52;95925.22;4968141;28;20519;-59
2022/09/23 11:26:53;;;;;;;2.75;2.17;;;;;;;20.69;47.59;95910.13;4970767;28;20035;-59
2022/09/23 11:29:21;;;;;;;3.80;2.30;;;;;;;20.53;48.18;95911.28;4970971;28;20031;-59
2022/09/23 11:32:05;;;;;;;2.42;2.22;;;;;;;20.71;46.36;95903.53;4970729;28;20404;-59
2022/09/23 11:34:49;;;;;;;1.90;1.80;;;;;;;20.95;46.40;95898.69;4970640;28;20046;-59
2022/09/23 11:37:18;;;;;;;2.03;1.90;;;;;;;20.92;43.70;95904.44;4968395;28;20030;-59
2022/09/23 11:39:54;;;;;;;4.25;1.90;;;;;;;20.45;45.14;95896.25;4970796;28;20030;-60
2022/09/23 11:42:25;;;;;;;3.30;1.85;;;;;;;20.76;44.68;95889.56;4969447;28;20114;-62
2022/09/23 11:44:59;;;;;;;4.05;2.20;;;;;;;20.48;45.88;95885.16;4966874;28;20026;-62
2022/09/23 11:47:35;;;;;;;3.28;1.90;;;;;;;20.26;43.93;95887.94;4970345;28;20033;-62
2022/09/23 11:50:16;;;;;;;2.10;1.90;;;;;;;20.23;44.59;95883.00;4949501;29;20412;-62
2022/09/23 11:52:52;;;;;;;2.13;1.73;;;;;;;20.50;44.43;95875.06;4950219;29;20012;-62
2022/09/23 11:55:23;;;;;;;1.88;1.70;;;;;;;20.61;44.22;95869.13;4945391;29;20034;-62
2022/09/23 11:57:58;;;;;;;2.97;1.80;;;;;;;20.95;42.99;95876.47;4952602;28;20039;-64
2022/09/23 12:00:33;;;;;;;2.13;2.00;;;;;;;20.96;42.76;95870.09;4952062;28;20023;-67
2022/09/23 12:03:17;;;;;;;3.72;1.73;;;;;;;21.21;40.28;95864.13;4950823;29;20479;-60
2022/09/23 12:05:51;;;;;;;1.92;1.58;;;;;;;21.20;40.02;95857.94;4951230;28;20038;-60
2022/09/23 12:08:31;;;;;;;1.98;1.60;;;;;;;21.21;39.37;95858.78;4951982;28;20031;-60
2022/09/23 12:10:59;;;;;;;2.08;1.38;;;;;;;21.44;39.08;95853.84;4952074;28;20512;-60
2022/09/23 12:13:24;;;;;;;1.80;1.70;;;;;;;21.60;39.99;95860.63;4952129;28;20110;-60